Latest Weather Observations for Gove Airport

IDD60801

Issued at 9:35 pm CST Monday 24 November 2014 (issued every 30 minutes, with the page automatically refreshed every 10 minutes)

About weather observations | Map of weather stations | Latest weather observations for NT | Other Formats
Station Details ID: 014508 Name: GOVE AIRPORT Lat: -12.27 Lon: 136.82 Height: 51.6 m
Data from the previous 72 hours. | See also: Recent months at Gove Airport
Date/Time
CST
Temp
°C
App
Temp
°C
Dew
Point
Rel
Hum
%
Delta-T
°C
Wind Press
QNH
hPa
Press
MSL
hPa
Rain
since 9 am
mm
Dir
 
Spd
km/h
Gust
km/h
Spd
kts
Gust
kts
24/09:30pm 27.3 30.6 22.6 75 3.2 ENE 9 11 5 6 1009.9 - 0.0
24/09:00pm 27.3 30.5 22.3 74 3.4 NE 9 11 5 6 1009.7 1009.3 0.0
24/08:30pm 27.5 31.0 22.2 73 3.6 NE 7 11 4 6 1009.5 - 0.0
24/08:00pm 27.6 30.9 22.6 74 3.4 NE 9 13 5 7 1009.0 - 0.0
24/07:30pm 27.6 30.7 22.1 72 3.7 NE 9 13 5 7 1008.5 - 0.0
24/07:00pm 27.8 30.9 22.2 71 3.8 N 9 11 5 6 1007.9 - 0.0
24/06:30pm 28.0 30.7 22.2 70 3.9 NNE 11 17 6 9 1007.7 - 0.0
24/06:00pm 28.5 30.3 21.8 67 4.5 NE 15 20 8 11 1007.5 1007.2 0.0
24/05:30pm 29.1 30.6 22.0 65 4.8 NE 17 24 9 13 1007.8 - 0.0
24/05:00pm 29.5 29.6 21.8 63 5.2 ENE 24 33 13 18 1007.6 - 0.0
24/04:30pm 30.6 31.1 21.9 59 5.9 ENE 22 32 12 17 1007.6 - 0.0
24/04:00pm 30.2 30.3 21.9 61 5.6 ENE 24 35 13 19 1007.7 - 0.0
24/03:30pm 30.5 30.3 22.1 61 5.7 ENE 26 35 14 19 1007.7 - 0.0
24/03:00pm 30.2 30.8 22.1 62 5.5 NNE 22 30 12 16 1008.2 1007.9 0.0
24/02:30pm 30.7 31.6 22.0 59 5.9 ENE 20 30 11 16 1008.5 - 0.0
24/02:00pm 30.5 31.5 22.1 61 5.7 NNE 20 28 11 15 1008.8 - 0.0
24/01:30pm 31.9 32.9 21.7 54 6.9 ENE 19 24 10 13 1009.2 - 0.0
24/01:00pm 31.2 32.1 21.6 56 6.5 NNE 19 24 10 13 1009.7 - 0.0
24/12:30pm 30.9 31.8 21.6 57 6.3 NNE 19 24 10 13 1010.3 - 0.0
24/12:00pm 31.6 33.2 22.1 57 6.5 NE 17 24 9 13 1010.6 1010.2 0.0
24/11:30am 31.0 31.5 21.2 56 6.6 ENE 20 30 11 16 1011.0 - 0.0
24/11:00am 30.5 31.7 22.1 61 5.7 NNE 19 28 10 15 1011.2 - 0.0
24/10:30am 30.8 31.1 21.6 58 6.2 NE 22 32 12 17 1011.3 - 0.0
24/10:00am 29.5 30.9 22.9 67 4.5 NNE 20 32 11 17 1011.5 - 0.0
24/09:30am 30.5 31.3 22.4 62 5.5 ENE 22 32 12 17 1011.5 - 0.0
24/09:00am 29.7 31.3 22.8 66 4.7 NE 19 24 10 13 1011.6 1011.2 0.0
24/08:30am 29.3 30.2 22.7 67 4.5 NE 22 30 12 16 1011.4 - 0.0
24/08:00am 28.7 30.1 22.5 69 4.2 NE 19 30 10 16 1011.0 - 0.0
24/07:30am 28.7 30.1 22.5 69 4.2 NNE 19 26 10 14 1010.9 - 0.0
24/07:00am 28.4 30.3 22.7 71 3.9 NE 17 22 9 12 1010.4 - 0.0
24/06:30am 27.4 30.3 22.4 74 3.4 NNE 11 20 6 11 1010.1 - 0.0
24/06:00am 26.6 29.5 22.5 78 2.8 NNE 11 15 6 8 1009.7 1009.3 0.0
24/05:30am 26.5 29.8 22.5 78 2.7 NE 9 13 5 7 1009.6 - 0.0
24/05:00am 26.4 29.5 22.9 81 2.4 NE 11 15 6 8 1009.3 - 0.0
24/04:30am 26.2 29.6 23.3 84 2.0 NE 11 13 6 7 1009.3 - 0.0
24/04:00am 26.2 30.4 23.4 84 1.9 NNE 7 11 4 6 1009.2 - 0.0
24/03:30am 26.2 30.1 23.6 85 1.8 NNE 9 13 5 7 1008.9 - 0.0
24/03:00am 26.1 30.0 23.6 86 1.7 NNE 9 11 5 6 1009.0 1008.6 0.0
24/02:30am 25.9 30.1 23.4 86 1.7 NNE 7 9 4 5 1009.0 - 0.0
24/02:00am 25.2 29.1 22.5 85 1.8 NNE 6 7 3 4 1009.1 - 0.0
24/01:30am 26.3 30.8 23.7 85 1.8 NE 6 9 3 5 1009.1 - 0.0
24/01:00am 26.5 30.4 23.6 84 2.0 NE 9 11 5 6 1009.5 - 0.0
24/12:30am 26.8 31.1 23.6 82 2.2 NE 7 9 4 5 1010.0 - 0.0
24/12:00am 27.0 31.2 23.5 81 2.4 NE 7 11 4 6 1010.5 1010.1 0.0
 
Date/Time
CST
Temp
°C
App
Temp
°C
Dew
Point
Rel
Hum
%
Delta-T
°C
Wind Press
QNH
hPa
Press
MSL
hPa
Rain
since 9 am
mm
Dir
 
Spd
km/h
Gust
km/h
Spd
kts
Gust
kts
23/11:30pm 27.2 31.5 23.7 81 2.4 NE 7 9 4 5 1011.0 - 0.0
23/11:00pm 27.4 31.7 23.6 80 2.6 ENE 7 11 4 6 1011.2 - 0.0
23/10:30pm 27.5 31.5 23.7 80 2.6 NE 9 13 5 7 1011.1 - 0.0
23/10:00pm 27.6 31.6 23.8 80 2.6 NE 9 15 5 8 1010.8 - 0.0
23/09:30pm 27.5 31.4 23.6 79 2.7 NNE 9 13 5 7 1010.5 - 0.0
23/09:00pm 27.5 31.5 23.1 77 3.0 NE 7 11 4 6 1010.3 1009.9 0.0
23/08:30pm 27.6 31.0 22.7 74 3.3 ENE 9 13 5 7 1010.3 - 0.0
23/08:00pm 27.8 31.6 22.7 74 3.5 ENE 7 11 4 6 1010.0 - 0.0
23/07:30pm 27.9 31.3 23.4 76 3.1 NE 11 13 6 7 1009.6 - 0.0
23/07:00pm 28.0 30.8 23.0 74 3.4 NE 13 17 7 9 1009.5 - 0.0
23/06:30pm 28.3 31.0 22.9 72 3.7 NE 13 17 7 9 1009.3 - 0.0
23/06:00pm 28.8 31.3 23.1 71 3.9 NE 15 22 8 12 1009.2 1008.8 0.0
23/05:30pm 29.4 31.6 23.3 69 4.2 NNE 17 24 9 13 1009.1 - 0.0
23/05:00pm 29.5 30.9 22.5 66 4.8 NNE 19 20 10 11 1009.0 - 0.0
23/04:30pm 29.8 31.2 22.6 65 4.9 ENE 19 24 10 13 1009.1 - 0.0
23/04:00pm 30.5 31.8 22.3 61 5.6 NNE 19 24 10 13 1009.4 - 0.0
23/03:30pm 30.5 31.0 21.9 60 5.8 NE 22 28 12 15 1009.5 - 0.0
23/03:00pm 31.6 32.9 22.4 58 6.3 NE 19 26 10 14 1009.8 1009.4 0.0
23/02:30pm 31.5 33.1 22.1 57 6.4 ENE 17 24 9 13 1010.2 - 0.0
23/02:00pm 31.3 32.3 21.0 54 6.9 ENE 17 24 9 13 1010.5 - 0.0
23/01:30pm 32.0 33.2 21.5 53 7.1 NE 17 24 9 13 1010.8 - 0.0
23/01:00pm 32.2 32.9 21.2 52 7.4 NNE 19 26 10 14 1011.2 - 0.0
23/12:30pm 32.3 31.2 19.4 46 8.5 ENE 24 32 13 17 1011.3 - 0.0
23/12:00pm 31.9 31.2 19.4 47 8.2 ENE 22 32 12 17 1011.8 1011.4 0.0
23/11:30am 31.8 32.2 20.7 51 7.4 NNE 19 24 10 13 1012.0 - 0.0
23/11:00am 32.2 32.5 20.7 50 7.7 ENE 20 26 11 14 1012.3 - 0.0
23/10:30am 31.4 31.6 20.6 52 7.2 ENE 20 28 11 15 1012.6 - 0.0
23/10:00am 31.8 32.1 20.7 51 7.4 ENE 20 28 11 15 1012.8 - 0.0
23/09:30am 30.9 31.4 20.9 55 6.7 NE 19 26 10 14 1013.0 - 0.0
23/09:00am 30.3 31.1 21.4 59 6.0 ENE 19 26 10 14 1013.0 1012.6 0.0
23/08:30am 30.2 31.3 21.3 59 6.0 E 17 20 9 11 1012.8 - 0.0
23/08:00am 29.5 32.1 22.6 66 4.7 NE 13 20 7 11 1012.8 - 0.0
23/07:30am 28.2 32.9 24.0 78 2.9 NNE 6 7 3 4 1012.5 - 0.0
23/07:00am 25.0 30.3 23.1 89 1.3 CALM 0 0 0 0 1012.2 - 0.0
23/06:30am 22.8 27.1 21.1 90 1.1 CALM 0 0 0 0 1011.5 - 0.0
23/06:00am 21.2 24.8 19.8 92 0.9 CALM 0 0 0 0 1010.9 1010.5 0.0
23/05:30am 21.0 24.4 19.3 90 1.1 CALM 0 0 0 0 1010.7 - 0.0
23/05:00am 21.3 25.0 19.9 92 0.9 CALM 0 0 0 0 1010.5 - 0.0
23/04:30am 21.9 25.9 20.5 92 0.9 CALM 0 0 0 0 1010.2 - 0.0
23/04:00am 22.0 26.1 20.8 93 0.8 CALM 0 0 0 0 1010.1 - 0.0
23/03:30am 22.0 26.1 20.8 93 0.8 CALM 0 0 0 0 1009.8 - 0.0
23/03:00am 21.8 25.7 20.3 91 1.0 CALM 0 0 0 0 1009.7 1009.3 0.0
23/02:30am 22.1 26.1 20.6 91 1.0 CALM 0 0 0 0 1009.8 - 0.0
23/02:00am 22.9 27.5 21.7 93 0.8 CALM 0 0 0 0 1010.1 - 0.0
23/01:30am 23.2 27.9 22.0 93 0.8 CALM 0 0 0 0 1010.4 - 0.0
23/01:08am 23.4 27.7 21.9 91 1.0 E 2 6 1 3 1010.7 - 0.0
23/01:00am 23.5 27.1 22.0 91 1.0 E 6 9 3 5 1010.9 - 0.0
23/12:35am 23.7 28.5 22.1 91 1.1 CALM 0 0 0 0 1011.2 - 0.0
23/12:30am 23.6 28.4 22.1 91 1.0 CALM 0 0 0 0 1011.2 - 0.0
23/12:00am 23.8 28.5 22.0 90 1.2 CALM 0 0 0 0 1011.3 1010.9 0.0
 
Date/Time
CST
Temp
°C
App
Temp
°C
Dew
Point
Rel
Hum
%
Delta-T
°C
Wind Press
QNH
hPa
Press
MSL
hPa
Rain
since 9 am
mm
Dir
 
Spd
km/h
Gust
km/h
Spd
kts
Gust
kts
22/11:41pm 24.4 29.4 22.5 89 1.3 CALM 0 0 0 0 1011.4 - 0.0
22/11:30pm 24.6 29.8 22.8 90 1.2 CALM 0 0 0 0 1011.5 - 0.0
22/11:12pm 24.7 29.9 22.8 89 1.3 CALM 0 0 0 0 1011.6 - 0.0
22/11:00pm 24.9 30.2 23.1 90 1.2 CALM 0 0 0 0 1011.7 - 0.0
22/10:30pm 25.2 29.8 22.5 85 1.8 ENE 2 7 1 4 1011.8 - 0.0
22/10:00pm 26.1 30.5 23.5 85 1.8 ESE 6 7 3 4 1011.7 - 0.0
22/09:30pm 26.2 30.6 23.4 84 1.9 SE 6 9 3 5 1011.6 - 0.0
22/09:00pm 27.5 31.3 23.4 78 2.8 ESE 9 11 5 6 1011.2 1010.8 0.0
22/08:30pm 27.6 31.3 23.2 77 3.0 ESE 9 13 5 7 1010.7 - 0.0
22/08:00pm 28.0 30.9 23.2 75 3.3 E 13 15 7 8 1010.3 - 0.0
22/07:30pm 28.3 30.7 23.0 73 3.6 ESE 15 17 8 9 1010.1 - 0.0
22/07:00pm 28.6 31.7 22.9 71 3.9 ESE 11 17 6 9 1009.9 - 0.0
22/06:30pm 28.8 30.6 22.6 69 4.2 E 17 20 9 11 1009.8 - 0.0
22/06:00pm 29.8 31.0 22.1 63 5.2 E 19 24 10 13 1009.9 1009.5 0.0
22/05:30pm 30.6 31.2 22.1 60 5.8 E 22 28 12 15 1009.8 - 0.0
22/05:00pm 31.1 32.5 21.8 57 6.3 E 17 26 9 14 1009.7 - 0.0
22/04:30pm 31.3 31.9 21.4 55 6.7 E 20 24 11 13 1009.5 - 0.0
22/04:00pm 31.3 31.6 21.5 56 6.6 E 22 32 12 17 1009.5 - 0.0
22/03:30pm 32.3 33.1 21.4 52 7.4 E 19 28 10 15 1009.5 - 0.0
22/03:00pm 32.3 32.7 20.7 50 7.8 E 19 33 10 18 1009.8 1009.4 0.0
22/02:30pm 31.9 33.0 21.2 53 7.2 ENE 17 26 9 14 1010.1 - 0.0
22/02:00pm 33.3 33.5 20.5 47 8.6 NE 20 32 11 17 1010.4 - 0.0
22/01:30pm 31.8 32.1 20.7 51 7.4 ESE 20 28 11 15 1010.6 - 0.0
22/01:00pm 33.0 34.6 21.5 50 7.8 ENE 15 24 8 13 1011.0 - 0.0
22/12:30pm 32.9 33.8 20.8 49 8.1 ENE 17 26 9 14 1011.1 - 0.0
22/12:00pm 32.0 32.9 20.8 51 7.5 ESE 17 20 9 11 1011.7 1011.3 0.0
22/11:30am 32.6 33.8 20.7 49 8.0 E 15 24 8 13 1012.0 - 0.0
22/11:00am 32.3 32.8 21.2 52 7.5 E 20 24 11 13 1012.5 - 0.0
22/10:30am 32.5 33.6 21.2 51 7.6 ENE 17 28 9 15 1012.5 - 0.0
22/10:00am 31.3 32.5 21.5 56 6.6 E 17 22 9 12 1012.8 - 0.0
22/09:30am 31.7 32.5 21.7 55 6.8 ESE 20 30 11 16 1013.0 - 0.0
22/09:00am 30.7 32.1 21.8 59 6.0 ENE 17 22 9 12 1012.7 1012.3 0.0
22/08:30am 29.5 32.6 22.8 67 4.6 ENE 11 19 6 10 1012.3 - 0.0
22/08:00am 28.7 32.6 23.6 74 3.5 E 9 11 5 6 1012.1 - 0.0
22/07:30am 28.6 32.2 23.0 71 3.8 E 9 11 5 6 1012.1 - 0.0
22/07:00am 27.5 31.9 22.8 75 3.2 E 4 7 2 4 1011.9 - 0.0
22/06:30am 25.2 30.5 23.0 87 1.5 CALM 0 0 0 0 1011.7 - 0.0
22/06:00am 24.0 29.1 22.7 92 0.9 CALM 0 0 0 0 1011.3 1010.9 0.0
22/05:30am 23.8 28.6 22.2 91 1.1 CALM 0 0 0 0 1010.9 - 0.0
22/05:00am 23.9 29.0 22.6 92 0.9 CALM 0 0 0 0 1010.4 - 0.0
22/04:30am 24.1 29.1 22.5 91 1.1 CALM 0 0 0 0 1010.1 - 0.0
22/04:00am 24.4 29.3 22.3 88 1.4 CALM 0 0 0 0 1009.9 - 0.0
22/03:30am 23.5 28.3 22.2 92 0.9 CALM 0 0 0 0 1009.7 - 0.0
22/03:00am 23.4 28.1 22.0 92 0.9 CALM 0 0 0 0 1009.8 1009.4 0.0
22/02:30am 23.2 27.7 21.5 90 1.1 CALM 0 0 0 0 1009.8 - 0.0
22/02:00am 23.2 26.4 21.7 91 1.0 WSW 7 7 4 4 1009.9 - 0.0
22/01:30am 23.4 28.0 21.7 90 1.1 CALM 0 0 0 0 1009.8 - 0.0
22/01:00am 23.7 28.5 22.1 91 1.1 CALM 0 0 0 0 1009.9 - 0.0
22/12:30am 24.0 28.9 22.4 91 1.1 CALM 0 0 0 0 1010.1 - 0.0
22/12:00am 24.4 29.4 22.5 89 1.3 CALM 0 0 0 0 1010.5 1010.1 0.0
 
Date/Time
CST
Temp
°C
App
Temp
°C
Dew
Point
Rel
Hum
%
Delta-T
°C
Wind Press
QNH
hPa
Press
MSL
hPa
Rain
since 9 am
mm
Dir
 
Spd
km/h
Gust
km/h
Spd
kts
Gust
kts
21/11:30pm 24.7 29.9 22.8 89 1.3 CALM 0 0 0 0 1010.8 - 0.0
21/11:00pm 27.2 31.5 23.3 79 2.7 ENE 6 9 3 5 1011.0 - 0.0
21/10:30pm 27.5 31.1 23.1 77 3.0 E 9 13 5 7 1011.0 - 0.0
21/10:00pm 27.8 30.7 23.1 75 3.2 E 13 17 7 9 1011.0 - 0.0

Other Formats:

Comma delimited format used in spreadsheet applications
http://www.bom.gov.au/fwo/IDD60801/IDD60801.94150.axf

JavaScript Object Notation format (JSON) in row-major order
http://www.bom.gov.au/fwo/IDD60801/IDD60801.94150.json